sensor_id;sensor_type;location;lat;lon;timestamp;P1;durP1;ratioP1;P2;durP2;ratioP2
20230;SDS011;10274;49.022;9.338;2023-05-10T00:01:51;1.10;;;1.00;;
20230;SDS011;10274;49.022;9.338;2023-05-10T00:04:18;0.80;;;0.80;;
20230;SDS011;10274;49.022;9.338;2023-05-10T00:06:44;1.27;;;0.90;;
20230;SDS011;10274;49.022;9.338;2023-05-10T00:09:11;0.53;;;0.53;;
20230;SDS011;10274;49.022;9.338;2023-05-10T00:11:38;0.70;;;0.70;;
20230;SDS011;10274;49.022;9.338;2023-05-10T00:14:04;0.50;;;0.50;;
20230;SDS011;10274;49.022;9.338;2023-05-10T00:16:31;0.57;;;0.47;;
20230;SDS011;10274;49.022;9.338;2023-05-10T00:18:59;0.60;;;0.60;;
20230;SDS011;10274;49.022;9.338;2023-05-10T00:21:26;0.60;;;0.60;;
20230;SDS011;10274;49.022;9.338;2023-05-10T00:23:53;0.50;;;0.50;;
20230;SDS011;10274;49.022;9.338;2023-05-10T00:26:20;0.43;;;0.43;;
20230;SDS011;10274;49.022;9.338;2023-05-10T00:28:46;0.50;;;0.50;;
20230;SDS011;10274;49.022;9.338;2023-05-10T00:31:13;0.50;;;0.50;;
20230;SDS011;10274;49.022;9.338;2023-05-10T00:33:40;0.40;;;0.40;;
20230;SDS011;10274;49.022;9.338;2023-05-10T00:36:08;0.30;;;0.30;;
20230;SDS011;10274;49.022;9.338;2023-05-10T00:38:35;0.98;;;0.60;;
20230;SDS011;10274;49.022;9.338;2023-05-10T00:41:02;0.40;;;0.40;;
20230;SDS011;10274;49.022;9.338;2023-05-10T00:43:29;0.30;;;0.30;;
20230;SDS011;10274;49.022;9.338;2023-05-10T00:45:55;0.60;;;0.40;;
20230;SDS011;10274;49.022;9.338;2023-05-10T00:48:22;0.40;;;0.40;;
20230;SDS011;10274;49.022;9.338;2023-05-10T00:50:49;1.00;;;0.50;;
20230;SDS011;10274;49.022;9.338;2023-05-10T00:53:17;0.40;;;0.40;;
20230;SDS011;10274;49.022;9.338;2023-05-10T00:55:44;0.40;;;0.40;;
20230;SDS011;10274;49.022;9.338;2023-05-10T00:58:11;0.50;;;0.50;;
20230;SDS011;10274;49.022;9.338;2023-05-10T01:00:39;0.27;;;0.20;;
20230;SDS011;10274;49.022;9.338;2023-05-10T01:03:08;0.32;;;0.32;;
20230;SDS011;10274;49.022;9.338;2023-05-10T01:05:35;0.90;;;0.40;;
20230;SDS011;10274;49.022;9.338;2023-05-10T01:08:02;0.30;;;0.30;;
20230;SDS011;10274;49.022;9.338;2023-05-10T01:10:30;0.50;;;0.40;;
20230;SDS011;10274;49.022;9.338;2023-05-10T01:12:58;0.47;;;0.47;;
20230;SDS011;10274;49.022;9.338;2023-05-10T01:15:25;0.30;;;0.30;;
20230;SDS011;10274;49.022;9.338;2023-05-10T01:17:52;0.32;;;0.32;;
20230;SDS011;10274;49.022;9.338;2023-05-10T01:20:19;0.40;;;0.40;;
20230;SDS011;10274;49.022;9.338;2023-05-10T01:22:50;0.52;;;0.50;;
20230;SDS011;10274;49.022;9.338;2023-05-10T01:25:37;0.40;;;0.40;;
20230;SDS011;10274;49.022;9.338;2023-05-10T01:28:58;0.40;;;0.40;;
20230;SDS011;10274;49.022;9.338;2023-05-10T01:31:39;0.68;;;0.68;;
20230;SDS011;10274;49.022;9.338;2023-05-10T01:34:44;0.70;;;0.55;;
20230;SDS011;10274;49.022;9.338;2023-05-10T01:37:20;0.55;;;0.55;;
20230;SDS011;10274;49.022;9.338;2023-05-10T01:39:53;0.40;;;0.40;;
20230;SDS011;10274;49.022;9.338;2023-05-10T01:42:26;0.47;;;0.47;;
20230;SDS011;10274;49.022;9.338;2023-05-10T01:45:02;0.60;;;0.60;;
20230;SDS011;10274;49.022;9.338;2023-05-10T01:47:40;0.50;;;0.50;;
20230;SDS011;10274;49.022;9.338;2023-05-10T01:50:12;0.65;;;0.65;;
20230;SDS011;10274;49.022;9.338;2023-05-10T01:52:43;0.70;;;0.70;;
20230;SDS011;10274;49.022;9.338;2023-05-10T01:55:14;0.60;;;0.60;;
20230;SDS011;10274;49.022;9.338;2023-05-10T01:57:44;0.57;;;0.57;;
20230;SDS011;10274;49.022;9.338;2023-05-10T02:00:12;0.40;;;0.40;;
20230;SDS011;10274;49.022;9.338;2023-05-10T02:02:42;0.80;;;0.57;;
20230;SDS011;10274;49.022;9.338;2023-05-10T02:05:13;0.55;;;0.55;;
20230;SDS011;10274;49.022;9.338;2023-05-10T02:07:41;0.60;;;0.60;;
20230;SDS011;10274;49.022;9.338;2023-05-10T02:10:09;0.70;;;0.70;;
20230;SDS011;10274;49.022;9.338;2023-05-10T02:12:39;0.80;;;0.60;;
20230;SDS011;10274;49.022;9.338;2023-05-10T02:15:08;0.80;;;0.80;;
20230;SDS011;10274;49.022;9.338;2023-05-10T02:17:37;0.70;;;0.70;;
20230;SDS011;10274;49.022;9.338;2023-05-10T02:20:06;0.68;;;0.68;;
20230;SDS011;10274;49.022;9.338;2023-05-10T02:22:36;0.60;;;0.60;;
20230;SDS011;10274;49.022;9.338;2023-05-10T02:25:04;0.70;;;0.70;;
20230;SDS011;10274;49.022;9.338;2023-05-10T02:27:32;0.80;;;0.80;;
20230;SDS011;10274;49.022;9.338;2023-05-10T02:30:00;0.68;;;0.68;;
20230;SDS011;10274;49.022;9.338;2023-05-10T02:32:28;0.77;;;0.77;;
20230;SDS011;10274;49.022;9.338;2023-05-10T02:34:56;0.80;;;0.80;;
20230;SDS011;10274;49.022;9.338;2023-05-10T02:37:24;0.70;;;0.70;;
20230;SDS011;10274;49.022;9.338;2023-05-10T02:39:54;0.80;;;0.80;;
20230;SDS011;10274;49.022;9.338;2023-05-10T02:42:23;0.70;;;0.70;;
20230;SDS011;10274;49.022;9.338;2023-05-10T02:44:53;0.70;;;0.70;;
20230;SDS011;10274;49.022;9.338;2023-05-10T02:47:25;0.77;;;0.77;;
20230;SDS011;10274;49.022;9.338;2023-05-10T02:49:52;0.83;;;0.83;;
20230;SDS011;10274;49.022;9.338;2023-05-10T02:52:21;0.70;;;0.70;;
20230;SDS011;10274;49.022;9.338;2023-05-10T02:54:54;0.70;;;0.70;;
20230;SDS011;10274;49.022;9.338;2023-05-10T02:57:25;0.98;;;0.90;;
20230;SDS011;10274;49.022;9.338;2023-05-10T02:59:54;0.85;;;0.85;;
20230;SDS011;10274;49.022;9.338;2023-05-10T03:02:21;0.90;;;0.90;;
20230;SDS011;10274;49.022;9.338;2023-05-10T03:04:48;0.90;;;0.90;;
20230;SDS011;10274;49.022;9.338;2023-05-10T03:07:14;1.23;;;0.82;;
20230;SDS011;10274;49.022;9.338;2023-05-10T03:09:41;1.45;;;1.10;;
20230;SDS011;10274;49.022;9.338;2023-05-10T03:12:11;1.10;;;1.00;;
20230;SDS011;10274;49.022;9.338;2023-05-10T03:14:44;1.02;;;0.98;;
20230;SDS011;10274;49.022;9.338;2023-05-10T03:17:19;0.73;;;0.73;;
20230;SDS011;10274;49.022;9.338;2023-05-10T03:19:53;1.07;;;0.97;;
20230;SDS011;10274;49.022;9.338;2023-05-10T03:22:26;0.90;;;0.90;;
20230;SDS011;10274;49.022;9.338;2023-05-10T03:24:57;1.50;;;0.90;;
20230;SDS011;10274;49.022;9.338;2023-05-10T03:27:28;0.80;;;0.80;;
20230;SDS011;10274;49.022;9.338;2023-05-10T03:29:57;0.87;;;0.87;;
20230;SDS011;10274;49.022;9.338;2023-05-10T03:32:25;0.87;;;0.87;;
20230;SDS011;10274;49.022;9.338;2023-05-10T03:34:53;1.17;;;1.08;;
20230;SDS011;10274;49.022;9.338;2023-05-10T03:37:19;1.30;;;1.20;;
20230;SDS011;10274;49.022;9.338;2023-05-10T03:39:46;1.38;;;1.13;;
20230;SDS011;10274;49.022;9.338;2023-05-10T03:42:13;1.25;;;1.15;;
20230;SDS011;10274;49.022;9.338;2023-05-10T03:44:41;1.40;;;1.30;;
20230;SDS011;10274;49.022;9.338;2023-05-10T03:47:07;1.50;;;1.40;;
20230;SDS011;10274;49.022;9.338;2023-05-10T03:49:34;1.38;;;1.27;;
20230;SDS011;10274;49.022;9.338;2023-05-10T03:52:01;1.30;;;1.20;;
20230;SDS011;10274;49.022;9.338;2023-05-10T03:54:27;1.30;;;1.20;;
20230;SDS011;10274;49.022;9.338;2023-05-10T03:56:54;1.50;;;1.40;;
20230;SDS011;10274;49.022;9.338;2023-05-10T03:59:21;1.60;;;1.50;;
20230;SDS011;10274;49.022;9.338;2023-05-10T04:01:49;1.60;;;1.50;;
20230;SDS011;10274;49.022;9.338;2023-05-10T04:04:15;1.30;;;1.20;;
20230;SDS011;10274;49.022;9.338;2023-05-10T04:06:43;1.60;;;1.50;;
20230;SDS011;10274;49.022;9.338;2023-05-10T04:09:10;1.73;;;1.63;;
20230;SDS011;10274;49.022;9.338;2023-05-10T04:11:36;1.60;;;1.50;;
20230;SDS011;10274;49.022;9.338;2023-05-10T04:14:03;2.60;;;1.67;;
20230;SDS011;10274;49.022;9.338;2023-05-10T04:16:30;1.63;;;1.52;;
20230;SDS011;10274;49.022;9.338;2023-05-10T04:18:58;1.50;;;1.40;;
20230;SDS011;10274;49.022;9.338;2023-05-10T04:21:25;1.87;;;1.77;;
20230;SDS011;10274;49.022;9.338;2023-05-10T04:23:51;1.77;;;1.67;;
20230;SDS011;10274;49.022;9.338;2023-05-10T04:26:18;1.70;;;1.60;;
20230;SDS011;10274;49.022;9.338;2023-05-10T04:28:45;2.15;;;1.95;;
20230;SDS011;10274;49.022;9.338;2023-05-10T04:31:12;2.08;;;1.80;;
20230;SDS011;10274;49.022;9.338;2023-05-10T04:33:38;2.03;;;1.83;;
20230;SDS011;10274;49.022;9.338;2023-05-10T04:36:07;1.73;;;1.63;;
20230;SDS011;10274;49.022;9.338;2023-05-10T04:38:34;1.50;;;1.40;;
20230;SDS011;10274;49.022;9.338;2023-05-10T04:41:03;1.80;;;1.70;;
20230;SDS011;10274;49.022;9.338;2023-05-10T04:43:31;2.20;;;1.80;;
20230;SDS011;10274;49.022;9.338;2023-05-10T04:45:57;2.13;;;1.93;;
20230;SDS011;10274;49.022;9.338;2023-05-10T04:48:24;1.97;;;1.80;;
20230;SDS011;10274;49.022;9.338;2023-05-10T04:50:51;2.43;;;2.07;;
20230;SDS011;10274;49.022;9.338;2023-05-10T04:53:19;2.37;;;2.13;;
20230;SDS011;10274;49.022;9.338;2023-05-10T04:55:46;2.47;;;2.00;;
20230;SDS011;10274;49.022;9.338;2023-05-10T04:58:13;2.33;;;2.13;;
20230;SDS011;10274;49.022;9.338;2023-05-10T05:00:40;2.93;;;2.30;;
20230;SDS011;10274;49.022;9.338;2023-05-10T05:03:07;2.50;;;2.30;;
20230;SDS011;10274;49.022;9.338;2023-05-10T05:05:34;3.10;;;2.50;;
20230;SDS011;10274;49.022;9.338;2023-05-10T05:08:01;2.28;;;2.10;;
20230;SDS011;10274;49.022;9.338;2023-05-10T05:10:29;2.20;;;2.00;;
20230;SDS011;10274;49.022;9.338;2023-05-10T05:12:56;2.25;;;2.05;;
20230;SDS011;10274;49.022;9.338;2023-05-10T05:15:22;2.20;;;2.00;;
20230;SDS011;10274;49.022;9.338;2023-05-10T05:17:49;2.38;;;2.17;;
20230;SDS011;10274;49.022;9.338;2023-05-10T05:20:16;2.25;;;2.05;;
20230;SDS011;10274;49.022;9.338;2023-05-10T05:22:44;2.20;;;2.00;;
20230;SDS011;10274;49.022;9.338;2023-05-10T05:25:10;2.50;;;2.20;;
20230;SDS011;10274;49.022;9.338;2023-05-10T05:27:39;2.22;;;1.73;;
20230;SDS011;10274;49.022;9.338;2023-05-10T05:30:06;2.00;;;1.77;;
20230;SDS011;10274;49.022;9.338;2023-05-10T05:32:33;1.80;;;1.70;;
20230;SDS011;10274;49.022;9.338;2023-05-10T05:35:00;2.47;;;2.05;;
20230;SDS011;10274;49.022;9.338;2023-05-10T05:37:27;1.65;;;1.55;;
20230;SDS011;10274;49.022;9.338;2023-05-10T05:39:53;2.45;;;1.70;;
20230;SDS011;10274;49.022;9.338;2023-05-10T05:42:20;1.80;;;1.70;;
20230;SDS011;10274;49.022;9.338;2023-05-10T05:44:48;2.10;;;1.93;;
20230;SDS011;10274;49.022;9.338;2023-05-10T05:47:15;1.88;;;1.75;;
20230;SDS011;10274;49.022;9.338;2023-05-10T05:49:42;2.42;;;1.88;;
20230;SDS011;10274;49.022;9.338;2023-05-10T05:52:10;1.70;;;1.60;;
20230;SDS011;10274;49.022;9.338;2023-05-10T05:54:37;1.52;;;1.40;;
20230;SDS011;10274;49.022;9.338;2023-05-10T05:57:04;1.55;;;1.40;;
20230;SDS011;10274;49.022;9.338;2023-05-10T05:59:31;3.17;;;1.80;;
20230;SDS011;10274;49.022;9.338;2023-05-10T06:01:59;3.63;;;1.73;;
20230;SDS011;10274;49.022;9.338;2023-05-10T06:04:25;2.20;;;1.83;;
20230;SDS011;10274;49.022;9.338;2023-05-10T06:06:52;1.70;;;1.58;;
20230;SDS011;10274;49.022;9.338;2023-05-10T06:09:19;2.35;;;1.90;;
20230;SDS011;10274;49.022;9.338;2023-05-10T06:11:45;1.73;;;1.63;;
20230;SDS011;10274;49.022;9.338;2023-05-10T06:14:12;1.70;;;1.60;;
20230;SDS011;10274;49.022;9.338;2023-05-10T06:16:39;1.85;;;1.70;;
20230;SDS011;10274;49.022;9.338;2023-05-10T06:19:08;2.00;;;1.55;;
20230;SDS011;10274;49.022;9.338;2023-05-10T06:21:34;1.42;;;1.33;;
20230;SDS011;10274;49.022;9.338;2023-05-10T06:24:01;2.95;;;1.92;;
20230;SDS011;10274;49.022;9.338;2023-05-10T06:26:28;2.05;;;1.75;;
20230;SDS011;10274;49.022;9.338;2023-05-10T06:28:55;2.00;;;1.80;;
20230;SDS011;10274;49.022;9.338;2023-05-10T06:31:21;2.17;;;1.60;;
20230;SDS011;10274;49.022;9.338;2023-05-10T06:33:48;2.22;;;1.70;;
20230;SDS011;10274;49.022;9.338;2023-05-10T06:36:17;2.33;;;2.13;;
20230;SDS011;10274;49.022;9.338;2023-05-10T06:38:43;3.22;;;1.70;;
20230;SDS011;10274;49.022;9.338;2023-05-10T06:41:10;1.87;;;1.77;;
20230;SDS011;10274;49.022;9.338;2023-05-10T06:43:37;1.97;;;1.80;;
20230;SDS011;10274;49.022;9.338;2023-05-10T06:46:06;2.10;;;1.90;;
20230;SDS011;10274;49.022;9.338;2023-05-10T06:48:33;2.60;;;1.77;;
20230;SDS011;10274;49.022;9.338;2023-05-10T06:51:00;2.00;;;1.80;;
20230;SDS011;10274;49.022;9.338;2023-05-10T06:53:30;2.03;;;1.80;;
20230;SDS011;10274;49.022;9.338;2023-05-10T06:55:57;2.92;;;2.10;;
20230;SDS011;10274;49.022;9.338;2023-05-10T06:58:24;2.15;;;1.90;;
20230;SDS011;10274;49.022;9.338;2023-05-10T07:00:51;2.15;;;1.45;;
20230;SDS011;10274;49.022;9.338;2023-05-10T07:03:17;1.75;;;1.60;;
20230;SDS011;10274;49.022;9.338;2023-05-10T07:05:44;1.50;;;1.40;;
20230;SDS011;10274;49.022;9.338;2023-05-10T07:08:11;2.53;;;1.67;;
20230;SDS011;10274;49.022;9.338;2023-05-10T07:10:39;2.00;;;1.60;;
20230;SDS011;10274;49.022;9.338;2023-05-10T07:13:06;1.88;;;1.63;;
20230;SDS011;10274;49.022;9.338;2023-05-10T07:15:33;2.63;;;1.50;;
20230;SDS011;10274;49.022;9.338;2023-05-10T07:17:59;2.30;;;1.42;;
20230;SDS011;10274;49.022;9.338;2023-05-10T07:20:26;1.83;;;1.55;;
20230;SDS011;10274;49.022;9.338;2023-05-10T07:22:53;1.63;;;1.52;;
20230;SDS011;10274;49.022;9.338;2023-05-10T07:25:20;3.25;;;1.77;;
20230;SDS011;10274;49.022;9.338;2023-05-10T07:27:48;2.53;;;1.50;;
20230;SDS011;10274;49.022;9.338;2023-05-10T07:30:15;1.58;;;1.48;;
20230;SDS011;10274;49.022;9.338;2023-05-10T07:32:42;3.95;;;2.05;;
20230;SDS011;10274;49.022;9.338;2023-05-10T07:35:09;2.45;;;1.40;;
20230;SDS011;10274;49.022;9.338;2023-05-10T07:37:36;1.58;;;1.10;;
20230;SDS011;10274;49.022;9.338;2023-05-10T07:40:03;1.88;;;1.45;;
20230;SDS011;10274;49.022;9.338;2023-05-10T07:42:31;1.48;;;1.38;;
20230;SDS011;10274;49.022;9.338;2023-05-10T07:44:59;1.30;;;1.20;;
20230;SDS011;10274;49.022;9.338;2023-05-10T07:47:26;2.07;;;1.20;;
20230;SDS011;10274;49.022;9.338;2023-05-10T07:49:53;1.33;;;1.20;;
20230;SDS011;10274;49.022;9.338;2023-05-10T07:52:19;1.33;;;1.10;;
20230;SDS011;10274;49.022;9.338;2023-05-10T07:54:46;1.17;;;0.82;;
20230;SDS011;10274;49.022;9.338;2023-05-10T07:57:13;1.67;;;0.90;;
20230;SDS011;10274;49.022;9.338;2023-05-10T07:59:42;2.10;;;1.27;;
20230;SDS011;10274;49.022;9.338;2023-05-10T08:02:10;1.17;;;1.05;;
20230;SDS011;10274;49.022;9.338;2023-05-10T08:04:37;1.70;;;0.82;;
20230;SDS011;10274;49.022;9.338;2023-05-10T08:07:04;1.08;;;0.90;;
20230;SDS011;10274;49.022;9.338;2023-05-10T08:09:30;1.70;;;1.15;;
20230;SDS011;10274;49.022;9.338;2023-05-10T08:11:57;1.20;;;1.05;;
20230;SDS011;10274;49.022;9.338;2023-05-10T08:14:25;1.02;;;0.90;;
20230;SDS011;10274;49.022;9.338;2023-05-10T08:16:51;1.20;;;0.90;;
20230;SDS011;10274;49.022;9.338;2023-05-10T08:19:20;0.80;;;0.80;;
20230;SDS011;10274;49.022;9.338;2023-05-10T08:21:46;0.80;;;0.73;;
20230;SDS011;10274;49.022;9.338;2023-05-10T08:24:13;0.70;;;0.70;;
20230;SDS011;10274;49.022;9.338;2023-05-10T08:26:40;0.70;;;0.70;;
20230;SDS011;10274;49.022;9.338;2023-05-10T08:29:07;0.80;;;0.80;;
20230;SDS011;10274;49.022;9.338;2023-05-10T08:31:33;0.40;;;0.40;;
20230;SDS011;10274;49.022;9.338;2023-05-10T08:34:00;1.77;;;0.60;;
20230;SDS011;10274;49.022;9.338;2023-05-10T08:36:28;0.60;;;0.60;;
20230;SDS011;10274;49.022;9.338;2023-05-10T08:38:55;0.50;;;0.50;;
20230;SDS011;10274;49.022;9.338;2023-05-10T08:41:22;1.58;;;0.80;;
20230;SDS011;10274;49.022;9.338;2023-05-10T08:43:51;1.60;;;1.48;;
20230;SDS011;10274;49.022;9.338;2023-05-10T08:46:20;1.87;;;0.70;;
20230;SDS011;10274;49.022;9.338;2023-05-10T08:48:48;0.50;;;0.50;;
20230;SDS011;10274;49.022;9.338;2023-05-10T08:51:17;1.40;;;0.60;;
20230;SDS011;10274;49.022;9.338;2023-05-10T08:53:46;0.55;;;0.55;;
20230;SDS011;10274;49.022;9.338;2023-05-10T08:56:13;0.80;;;0.63;;
20230;SDS011;10274;49.022;9.338;2023-05-10T08:58:42;0.63;;;0.60;;
20230;SDS011;10274;49.022;9.338;2023-05-10T09:01:09;0.52;;;0.52;;
20230;SDS011;10274;49.022;9.338;2023-05-10T09:03:38;0.50;;;0.50;;
20230;SDS011;10274;49.022;9.338;2023-05-10T09:06:06;0.65;;;0.65;;
20230;SDS011;10274;49.022;9.338;2023-05-10T09:08:33;1.50;;;0.50;;
20230;SDS011;10274;49.022;9.338;2023-05-10T09:11:01;0.95;;;0.70;;
20230;SDS011;10274;49.022;9.338;2023-05-10T09:13:28;0.63;;;0.40;;
20230;SDS011;10274;49.022;9.338;2023-05-10T09:15:56;0.53;;;0.53;;
20230;SDS011;10274;49.022;9.338;2023-05-10T09:18:23;0.52;;;0.52;;
20230;SDS011;10274;49.022;9.338;2023-05-10T09:20:49;0.80;;;0.60;;
20230;SDS011;10274;49.022;9.338;2023-05-10T09:23:16;0.60;;;0.60;;
20230;SDS011;10274;49.022;9.338;2023-05-10T09:25:43;0.60;;;0.40;;
20230;SDS011;10274;49.022;9.338;2023-05-10T09:28:11;0.30;;;0.30;;
20230;SDS011;10274;49.022;9.338;2023-05-10T09:30:38;1.17;;;0.57;;
20230;SDS011;10274;49.022;9.338;2023-05-10T09:33:05;0.93;;;0.70;;
20230;SDS011;10274;49.022;9.338;2023-05-10T09:35:33;1.67;;;0.90;;
20230;SDS011;10274;49.022;9.338;2023-05-10T09:38:00;1.25;;;0.88;;
20230;SDS011;10274;49.022;9.338;2023-05-10T09:40:28;1.10;;;0.80;;
20230;SDS011;10274;49.022;9.338;2023-05-10T09:42:56;1.55;;;0.50;;
20230;SDS011;10274;49.022;9.338;2023-05-10T09:45:26;0.50;;;0.50;;
20230;SDS011;10274;49.022;9.338;2023-05-10T09:47:53;1.30;;;0.60;;
20230;SDS011;10274;49.022;9.338;2023-05-10T09:50:21;0.60;;;0.60;;
20230;SDS011;10274;49.022;9.338;2023-05-10T09:52:49;0.50;;;0.50;;
20230;SDS011;10274;49.022;9.338;2023-05-10T09:55:18;0.70;;;0.60;;
20230;SDS011;10274;49.022;9.338;2023-05-10T09:57:45;1.00;;;0.60;;
20230;SDS011;10274;49.022;9.338;2023-05-10T10:00:17;0.47;;;0.43;;
20230;SDS011;10274;49.022;9.338;2023-05-10T10:02:47;0.50;;;0.50;;
20230;SDS011;10274;49.022;9.338;2023-05-10T10:05:14;0.40;;;0.40;;
20230;SDS011;10274;49.022;9.338;2023-05-10T10:07:41;0.30;;;0.30;;
20230;SDS011;10274;49.022;9.338;2023-05-10T10:10:08;0.37;;;0.37;;
20230;SDS011;10274;49.022;9.338;2023-05-10T10:12:37;0.80;;;0.57;;
20230;SDS011;10274;49.022;9.338;2023-05-10T10:15:05;1.37;;;0.37;;
20230;SDS011;10274;49.022;9.338;2023-05-10T10:17:33;0.50;;;0.50;;
20230;SDS011;10274;49.022;9.338;2023-05-10T10:20:04;1.10;;;0.50;;
20230;SDS011;10274;49.022;9.338;2023-05-10T10:22:32;0.75;;;0.50;;
20230;SDS011;10274;49.022;9.338;2023-05-10T10:45:18;0.40;;;0.40;;
20230;SDS011;10274;49.022;9.338;2023-05-10T10:47:46;0.77;;;0.68;;
20230;SDS011;10274;49.022;9.338;2023-05-10T10:50:13;0.77;;;0.77;;
20230;SDS011;10274;49.022;9.338;2023-05-10T10:52:41;0.60;;;0.60;;
20230;SDS011;10274;49.022;9.338;2023-05-10T10:55:09;0.70;;;0.70;;
20230;SDS011;10274;49.022;9.338;2023-05-10T10:57:44;0.50;;;0.50;;
20230;SDS011;10274;49.022;9.338;2023-05-10T11:00:23;0.80;;;0.60;;
20230;SDS011;10274;49.022;9.338;2023-05-10T11:02:51;1.42;;;0.82;;
20230;SDS011;10274;49.022;9.338;2023-05-10T11:05:23;1.10;;;0.67;;
20230;SDS011;10274;49.022;9.338;2023-05-10T11:07:51;0.75;;;0.75;;
20230;SDS011;10274;49.022;9.338;2023-05-10T11:10:19;0.70;;;0.70;;
20230;SDS011;10274;49.022;9.338;2023-05-10T11:12:54;0.77;;;0.77;;
20230;SDS011;10274;49.022;9.338;2023-05-10T11:15:30;0.70;;;0.52;;
20230;SDS011;10274;49.022;9.338;2023-05-10T11:17:57;0.60;;;0.57;;
20230;SDS011;10274;49.022;9.338;2023-05-10T11:20:26;0.70;;;0.70;;
20230;SDS011;10274;49.022;9.338;2023-05-10T11:22:58;0.60;;;0.60;;
20230;SDS011;10274;49.022;9.338;2023-05-10T11:25:40;0.53;;;0.53;;
20230;SDS011;10274;49.022;9.338;2023-05-10T11:28:09;0.40;;;0.40;;
20230;SDS011;10274;49.022;9.338;2023-05-10T11:30:37;0.40;;;0.40;;
20230;SDS011;10274;49.022;9.338;2023-05-10T11:33:05;0.55;;;0.50;;
20230;SDS011;10274;49.022;9.338;2023-05-10T11:35:36;1.10;;;1.02;;
20230;SDS011;10274;49.022;9.338;2023-05-10T11:38:05;0.55;;;0.55;;
20230;SDS011;10274;49.022;9.338;2023-05-10T11:40:32;0.40;;;0.40;;
20230;SDS011;10274;49.022;9.338;2023-05-10T11:42:59;0.45;;;0.45;;
20230;SDS011;10274;49.022;9.338;2023-05-10T11:45:27;0.98;;;0.88;;
20230;SDS011;10274;49.022;9.338;2023-05-10T11:47:54;2.83;;;1.65;;
20230;SDS011;10274;49.022;9.338;2023-05-10T11:50:21;2.13;;;1.10;;
20230;SDS011;10274;49.022;9.338;2023-05-10T11:52:50;1.02;;;0.90;;
20230;SDS011;10274;49.022;9.338;2023-05-10T11:55:17;1.00;;;0.90;;
20230;SDS011;10274;49.022;9.338;2023-05-10T11:57:44;0.60;;;0.60;;
20230;SDS011;10274;49.022;9.338;2023-05-10T12:00:11;1.70;;;0.60;;
20230;SDS011;10274;49.022;9.338;2023-05-10T12:02:39;1.63;;;0.82;;
20230;SDS011;10274;49.022;9.338;2023-05-10T12:05:07;1.10;;;0.60;;
20230;SDS011;10274;49.022;9.338;2023-05-10T12:07:34;2.75;;;1.52;;
20230;SDS011;10274;49.022;9.338;2023-05-10T12:10:05;1.58;;;0.80;;
20230;SDS011;10274;49.022;9.338;2023-05-10T12:12:36;1.40;;;0.60;;
20230;SDS011;10274;49.022;9.338;2023-05-10T12:15:05;2.00;;;1.10;;
20230;SDS011;10274;49.022;9.338;2023-05-10T12:17:37;1.55;;;0.82;;
20230;SDS011;10274;49.022;9.338;2023-05-10T12:20:15;2.95;;;1.67;;
20230;SDS011;10274;49.022;9.338;2023-05-10T12:22:49;1.48;;;0.90;;
20230;SDS011;10274;49.022;9.338;2023-05-10T12:25:17;0.80;;;0.70;;
20230;SDS011;10274;49.022;9.338;2023-05-10T12:27:48;5.80;;;1.85;;
20230;SDS011;10274;49.022;9.338;2023-05-10T12:30:23;3.37;;;1.57;;
20230;SDS011;10274;49.022;9.338;2023-05-10T12:32:51;2.23;;;1.20;;
20230;SDS011;10274;49.022;9.338;2023-05-10T12:35:19;1.67;;;1.38;;
20230;SDS011;10274;49.022;9.338;2023-05-10T12:37:48;6.68;;;2.22;;
20230;SDS011;10274;49.022;9.338;2023-05-10T12:40:16;1.50;;;1.08;;
20230;SDS011;10274;49.022;9.338;2023-05-10T12:42:43;0.60;;;0.60;;
20230;SDS011;10274;49.022;9.338;2023-05-10T12:45:10;0.95;;;0.90;;
20230;SDS011;10274;49.022;9.338;2023-05-10T12:47:37;1.60;;;1.00;;
20230;SDS011;10274;49.022;9.338;2023-05-10T12:50:05;1.40;;;1.00;;
20230;SDS011;10274;49.022;9.338;2023-05-10T12:52:33;1.23;;;1.00;;
20230;SDS011;10274;49.022;9.338;2023-05-10T12:55:00;2.15;;;1.17;;
20230;SDS011;10274;49.022;9.338;2023-05-10T12:57:28;1.25;;;1.15;;
20230;SDS011;10274;49.022;9.338;2023-05-10T12:59:55;1.63;;;1.20;;
20230;SDS011;10274;49.022;9.338;2023-05-10T13:02:22;2.20;;;1.27;;
20230;SDS011;10274;49.022;9.338;2023-05-10T13:04:49;0.80;;;0.70;;
20230;SDS011;10274;49.022;9.338;2023-05-10T13:07:16;1.10;;;1.00;;
20230;SDS011;10274;49.022;9.338;2023-05-10T13:09:44;1.67;;;1.00;;
20230;SDS011;10274;49.022;9.338;2023-05-10T13:12:10;1.50;;;0.97;;
20230;SDS011;10274;49.022;9.338;2023-05-10T13:14:37;2.88;;;1.05;;
20230;SDS011;10274;49.022;9.338;2023-05-10T13:17:05;0.73;;;0.73;;
20230;SDS011;10274;49.022;9.338;2023-05-10T13:19:32;0.88;;;0.85;;
20230;SDS011;10274;49.022;9.338;2023-05-10T13:21:58;0.90;;;0.80;;
20230;SDS011;10274;49.022;9.338;2023-05-10T13:24:25;0.83;;;0.83;;
20230;SDS011;10274;49.022;9.338;2023-05-10T13:26:53;1.70;;;0.90;;
20230;SDS011;10274;49.022;9.338;2023-05-10T13:29:20;0.60;;;0.60;;
20230;SDS011;10274;49.022;9.338;2023-05-10T13:31:47;0.80;;;0.80;;
20230;SDS011;10274;49.022;9.338;2023-05-10T13:34:14;1.10;;;0.60;;
20230;SDS011;10274;49.022;9.338;2023-05-10T13:36:40;1.20;;;0.73;;
20230;SDS011;10274;49.022;9.338;2023-05-10T13:39:07;0.73;;;0.70;;
20230;SDS011;10274;49.022;9.338;2023-05-10T13:41:34;0.70;;;0.63;;
20230;SDS011;10274;49.022;9.338;2023-05-10T13:44:03;2.63;;;0.77;;
20230;SDS011;10274;49.022;9.338;2023-05-10T13:46:29;1.10;;;0.70;;
20230;SDS011;10274;49.022;9.338;2023-05-10T13:48:56;2.22;;;0.90;;
20230;SDS011;10274;49.022;9.338;2023-05-10T13:51:23;0.98;;;0.88;;
20230;SDS011;10274;49.022;9.338;2023-05-10T13:53:49;0.85;;;0.70;;
20230;SDS011;10274;49.022;9.338;2023-05-10T13:56:17;1.13;;;0.70;;
20230;SDS011;10274;49.022;9.338;2023-05-10T13:58:43;0.73;;;0.60;;
20230;SDS011;10274;49.022;9.338;2023-05-10T14:01:11;0.55;;;0.55;;
20230;SDS011;10274;49.022;9.338;2023-05-10T14:03:38;0.70;;;0.60;;
20230;SDS011;10274;49.022;9.338;2023-05-10T14:06:05;1.23;;;0.80;;
20230;SDS011;10274;49.022;9.338;2023-05-10T14:08:32;0.75;;;0.60;;
20230;SDS011;10274;49.022;9.338;2023-05-10T14:10:59;0.75;;;0.70;;
20230;SDS011;10274;49.022;9.338;2023-05-10T14:13:25;0.85;;;0.47;;
20230;SDS011;10274;49.022;9.338;2023-05-10T14:15:52;1.40;;;0.80;;
20230;SDS011;10274;49.022;9.338;2023-05-10T14:18:21;2.33;;;0.90;;
20230;SDS011;10274;49.022;9.338;2023-05-10T14:20:47;2.07;;;0.90;;
20230;SDS011;10274;49.022;9.338;2023-05-10T14:23:14;1.00;;;0.90;;
20230;SDS011;10274;49.022;9.338;2023-05-10T14:25:41;2.00;;;1.00;;
20230;SDS011;10274;49.022;9.338;2023-05-10T14:28:08;1.10;;;0.80;;
20230;SDS011;10274;49.022;9.338;2023-05-10T14:30:35;0.73;;;0.73;;
20230;SDS011;10274;49.022;9.338;2023-05-10T14:33:02;0.85;;;0.57;;
20230;SDS011;10274;49.022;9.338;2023-05-10T14:35:30;0.50;;;0.50;;
20230;SDS011;10274;49.022;9.338;2023-05-10T14:37:57;0.73;;;0.63;;
20230;SDS011;10274;49.022;9.338;2023-05-10T14:40:24;0.60;;;0.60;;
20230;SDS011;10274;49.022;9.338;2023-05-10T14:42:51;0.80;;;0.50;;
20230;SDS011;10274;49.022;9.338;2023-05-10T14:45:18;0.60;;;0.60;;
20230;SDS011;10274;49.022;9.338;2023-05-10T14:47:45;0.55;;;0.50;;
20230;SDS011;10274;49.022;9.338;2023-05-10T14:50:11;0.50;;;0.40;;
20230;SDS011;10274;49.022;9.338;2023-05-10T14:52:39;0.63;;;0.60;;
20230;SDS011;10274;49.022;9.338;2023-05-10T14:55:07;0.50;;;0.50;;
20230;SDS011;10274;49.022;9.338;2023-05-10T14:57:34;0.70;;;0.50;;
20230;SDS011;10274;49.022;9.338;2023-05-10T15:00:01;0.40;;;0.40;;
20230;SDS011;10274;49.022;9.338;2023-05-10T15:02:28;0.30;;;0.30;;
20230;SDS011;10274;49.022;9.338;2023-05-10T15:04:55;1.00;;;0.43;;
20230;SDS011;10274;49.022;9.338;2023-05-10T15:07:22;0.30;;;0.30;;
20230;SDS011;10274;49.022;9.338;2023-05-10T15:09:50;0.95;;;0.50;;
20230;SDS011;10274;49.022;9.338;2023-05-10T15:12:18;0.90;;;0.50;;
20230;SDS011;10274;49.022;9.338;2023-05-10T15:14:44;0.60;;;0.60;;